Historique des stations

Station météo de Graçay

Altitude de la station : 130 m







Données météorologiques pour le 23/05/2022
Date
Heure
Températures Humidité Point de rosée Vitesse
du vent
Direction Rafales Windchill Pression Pluviométrie
Cumul
Date
Heure
Températures Humidité Point de rosée Vitesse
du vent
Direction Rafales Windchill Pression Pluviométrie
Cumul
23/05/2022 09:1819.1 °C85 %16.7 °C14 km/hOSO16 km/h17.8 1003 hPa0.6 mm
23/05/2022 09:1519.1 °C85 %16.7 °C6 km/hOSO19 km/h18.9 1003 hPa0.6 mm
23/05/2022 09:0219.2 °C85 %16.7 °C11 km/hENE18 km/h18.9 1003 hPa0.6 mm
23/05/2022 09:0019.1 °C86 %16.7 °C5 km/hOSO19 km/h18.9 1003 hPa0.6 mm
23/05/2022 08:4719.4 °C85 %16.7 °C8 km/hSO19 km/h19.4 1003 hPa0.6 mm
23/05/2022 08:4519.6 °C85 %17.2 °C19 km/hSE19 km/h17.8 1003 hPa0.6 mm
23/05/2022 08:3219.0 °C87 %16.7 °C8 km/hSE16 km/h18.9 1003 hPa0.6 mm
23/05/2022 08:3018.9 °C86 %16.7 °C5 km/hSE19 km/h18.9 1003 hPa0.6 mm
23/05/2022 08:1718.6 °C88 %16.7 °C8 km/hSSO18 km/h18.3 1003 hPa0.6 mm
23/05/2022 08:1418.6 °C88 %16.7 °C16 km/hS19 km/h16.7 1002 hPa0.6 mm
23/05/2022 08:0118.2 °C90 %16.7 °C5 km/hSSO16 km/h18.3 1003 hPa0.6 mm
23/05/2022 07:5918.1 °C90 %16.7 °C3 km/hSSO19 km/h18.3 1003 hPa0.6 mm
23/05/2022 07:4717.9 °C90 %16.1 °C8 km/hSSE16 km/h17.8 1003 hPa0.6 mm
23/05/2022 07:4517.9 °C90 %16.1 °C5 km/hSSO19 km/h17.8 1003 hPa0.6 mm
23/05/2022 07:3218.1 °C90 %16.7 °C3 km/hSSE16 km/h18.3 1003 hPa0.6 mm
23/05/2022 07:3018.1 °C90 %16.7 °C3 km/hS19 km/h18.3 1003 hPa0.6 mm
23/05/2022 07:1718.1 °C91 %16.7 °C3 km/hSE13 km/h18.3 1003 hPa0.6 mm
23/05/2022 07:1518.1 °C91 %16.7 °C5 km/hSSE19 km/h18.3 1003 hPa0.6 mm
23/05/2022 07:0218.2 °C91 %16.7 °C5 km/hSSO16 km/h18.3 1003 hPa0.6 mm
23/05/2022 07:0018.2 °C91 %16.7 °C3 km/hSSO19 km/h18.3 1003 hPa0.6 mm
23/05/2022 06:4718.3 °C92 %17.2 °C5 km/hS11 km/h18.3 1003 hPa0.6 mm
23/05/2022 06:4518.3 °C92 %17.2 °C5 km/hSSE19 km/h18.3 1003 hPa0.6 mm
23/05/2022 06:3218.5 °C93 %17.2 °C3 km/hS16 km/h18.3 1004 hPa0.6 mm
23/05/2022 06:3018.5 °C93 %17.2 °C8 km/hSE19 km/h18.3 1004 hPa0.6 mm
23/05/2022 06:1718.6 °C93 %17.2 °C2 km/hS10 km/h18.3 1004 hPa0.6 mm
23/05/2022 06:1518.6 °C93 %17.2 °C8 km/hS19 km/h18.3 1003 hPa0.6 mm
23/05/2022 06:0218.7 °C93 %17.8 °C3 km/hSO11 km/h18.9 1004 hPa0.6 mm
23/05/2022 06:0018.7 °C93 %17.8 °C3 km/hSE19 km/h18.9 1004 hPa0.6 mm
23/05/2022 05:4719.0 °C93 %17.8 °C2 km/hSSE10 km/h18.9 1004 hPa0.6 mm
23/05/2022 05:4519.0 °C93 %17.8 °C3 km/hSE19 km/h18.9 1004 hPa0.6 mm
23/05/2022 05:3219.3 °C95 %18.3 °C2 km/hSSO8 km/h19.4 1004 hPa0.6 mm
23/05/2022 05:3019.3 °C95 %18.3 °C5 km/hOSO19 km/h19.4 1004 hPa0.6 mm
23/05/2022 05:1719.2 °C95 %18.3 °C2 km/hSSE10 km/h19.4 1004 hPa0.6 mm
23/05/2022 05:1519.1 °C95 %18.3 °C-SSO19 km/h18.9 1004 hPa0.6 mm
23/05/2022 05:0218.9 °C95 %18.3 °C-SSO5 km/h18.9 1004 hPa0.6 mm
23/05/2022 05:0018.9 °C95 %18.3 °C3 km/hESE19 km/h18.9 1004 hPa0.6 mm
23/05/2022 04:4718.6 °C95 %17.8 °C-OSO5 km/h18.3 1004 hPa0.6 mm
23/05/2022 04:4518.6 °C95 %17.8 °C-SSO19 km/h18.3 1004 hPa0.6 mm
23/05/2022 04:3218.3 °C95 %17.8 °C-S3 km/h18.3 1004 hPa0.6 mm
23/05/2022 04:3018.2 °C95 %17.2 °C-ESE19 km/h18.3 1004 hPa0.6 mm
23/05/2022 04:1618.1 °C94 %17.2 °C---18.3 1004 hPa0.6 mm
23/05/2022 04:1518.0 °C94 %17.2 °C-ESE19 km/h17.8 1004 hPa0.6 mm
23/05/2022 04:0217.9 °C94 %17.2 °C-SSE3 km/h17.8 1004 hPa0.6 mm
23/05/2022 04:0017.9 °C94 %17.2 °C-SSE19 km/h17.8 1004 hPa0.6 mm
23/05/2022 03:4717.8 °C94 %16.7 °C2 km/hSSE13 km/h17.8 1004 hPa0.4 mm
23/05/2022 03:4517.8 °C94 %16.7 °C3 km/hS19 km/h17.8 1004 hPa0.4 mm
23/05/2022 03:3217.7 °C94 %16.7 °C6 km/hESE14 km/h17.8 1004 hPa0.4 mm
23/05/2022 03:3017.7 °C94 %16.7 °C3 km/hSE19 km/h17.8 1004 hPa0.4 mm
23/05/2022 03:1717.7 °C94 %16.7 °C6 km/hSSE14 km/h17.8 1004 hPa0.4 mm
23/05/2022 03:1517.7 °C94 %16.7 °C6 km/hSSE19 km/h17.8 1004 hPa0.4 mm
23/05/2022 03:0217.7 °C94 %16.7 °C6 km/hSSE8 km/h17.8 1004 hPa0.4 mm
23/05/2022 03:0017.7 °C94 %16.7 °C6 km/hSSE19 km/h17.8 1004 hPa0.4 mm
23/05/2022 02:4717.7 °C94 %16.7 °C3 km/hSSE8 km/h17.8 1004 hPa0.4 mm
23/05/2022 02:4517.7 °C94 %16.7 °C2 km/hS19 km/h17.8 1004 hPa0.4 mm
23/05/2022 02:3217.5 °C94 %16.7 °C3 km/hS5 km/h17.8 1004 hPa0.4 mm
23/05/2022 02:3017.5 °C94 %16.7 °C2 km/hSE19 km/h17.8 1004 hPa0.4 mm
23/05/2022 02:1717.4 °C93 %16.1 °C3 km/hS6 km/h17.2 1004 hPa0.4 mm
23/05/2022 02:1517.4 °C93 %16.1 °C-S19 km/h17.2 1004 hPa0.4 mm
23/05/2022 02:0217.6 °C92 %16.1 °C2 km/hSE5 km/h17.8 1004 hPa0.4 mm
23/05/2022 02:0017.7 °C92 %16.7 °C-SSE19 km/h17.8 1004 hPa0.4 mm
23/05/2022 01:4717.9 °C92 %16.7 °C3 km/hSSE6 km/h17.8 1004 hPa0.4 mm
23/05/2022 01:4518.0 °C92 %16.7 °C3 km/hS19 km/h17.8 1004 hPa0.4 mm
23/05/2022 01:3218.1 °C92 %16.7 °C-SE5 km/h18.3 1004 hPa0.4 mm
23/05/2022 01:3018.1 °C92 %16.7 °C2 km/hESE19 km/h18.3 1004 hPa0.4 mm
23/05/2022 01:1718.3 °C91 %16.7 °C-ESE6 km/h18.3 1004 hPa0.4 mm
23/05/2022 01:1518.3 °C91 %16.7 °C2 km/hENE19 km/h18.3 1004 hPa0.4 mm
23/05/2022 01:0218.6 °C90 %17.2 °C3 km/hESE11 km/h18.3 1004 hPa0.4 mm
23/05/2022 01:0018.6 °C89 %16.7 °C5 km/hE19 km/h18.9 1003 hPa0.4 mm
23/05/2022 00:4719.0 °C87 %16.7 °C11 km/hE19 km/h18.3 1003 hPa0.4 mm
23/05/2022 00:4519.1 °C87 %16.7 °C10 km/hE19 km/h18.9 1003 hPa0.4 mm
23/05/2022 00:3219.1 °C88 %17.2 °C3 km/hE16 km/h18.9 1003 hPa0.4 mm
23/05/2022 00:3019.1 °C87 %17.2 °C8 km/hESE18 km/h18.9 1003 hPa0.4 mm
23/05/2022 00:1718.8 °C90 %17.2 °C6 km/hNNO14 km/h18.9 1004 hPa0.4 mm
23/05/2022 00:1518.8 °C89 %17.2 °C10 km/hESE11 km/h18.9 1005 hPa0.2 mm
23/05/2022 00:0318.9 °C89 %17.2 °C8 km/hNE14 km/h18.9 1006 hPa-
23/05/2022 00:0019.0 °C88 %17.2 °C5 km/hS5 km/h18.9 1006 hPa-


Minima :

Température : 17.4 °C
Humidité : 85 %
Point de rosée : 16.1 °C
Vent moyen : 2 km/h
Windchill : 16.7
Pression atm. : 1002 hPa
Maxima :

Température : 19.6 °C
Humidité : 95 %
Point de rosée : 18.3 °C
Vent moyen : 19 km/h
Windchill : 19.4
Pression atm. : 1006 hPa
Rafales max : 19 km/h
Cumul de pluie sur 24H : 0.6 mm

Graçay est une commune du département Cher (18).
La station météorologique du réseau de l'association la plus proche de Graçay est celle de Luçay-le-Libre



Icône Facebook Association Météo Centre Icône Twitter Association Météo Centre Icône Chaîne Youtube Association Météo Centre Icône contact Association Météo Centre Icône Insta Association Météo Centre